THY7AB LROP-LTFM
Flight info
| Callsign | THY7AB |
|---|---|
| Flight time | N/A |
| Altitude | 37000 |
| Route | IDARU DCT NONQE DCT MAXOV DCT MATEL L620 RIXEN |
| Aircraft | A20N/M-SDE2E3FGHIRWXY/LB1 |
Departure
| Time | 2026-05-07 18:41 |
|---|---|
| Airport | Bucharest Henri Coandă International Airport (LROP) |
Arrival
| Time | N/A |
|---|---|
| Airport | İstanbul Airport (LTFM) |
| Time | Latitude | Longitude | Altitude | Speed | Heading |
|---|---|---|---|---|---|
| 2026-05-07 18:08 | 44.57027 | 26.08196 | 316 ft | 0 kts | 354° |
| 2026-05-07 18:28 | 44.57018 | 26.08198 | 316 ft | 2 kts | 354° |
| 2026-05-07 18:28 | 44.57003 | 26.08200 | 316 ft | 2 kts | 354° |
| 2026-05-07 18:29 | 44.56988 | 26.08202 | 315 ft | 2 kts | 354° |
| 2026-05-07 18:29 | 44.56973 | 26.08204 | 315 ft | 2 kts | 354° |
| 2026-05-07 18:29 | 44.56964 | 26.08205 | 315 ft | 2 kts | 349° |
| 2026-05-07 18:29 | 44.56950 | 26.08216 | 315 ft | 2 kts | 310° |
| 2026-05-07 18:30 | 44.56943 | 26.08235 | 314 ft | 2 kts | 278° |
| 2026-05-07 18:30 | 44.56943 | 26.08245 | 314 ft | 1 kts | 260° |
| 2026-05-07 18:30 | 44.56944 | 26.08252 | 314 ft | 0 kts | 264° |
| 2026-05-07 18:32 | 44.56944 | 26.08250 | 314 ft | 0 kts | 264° |
| 2026-05-07 18:32 | 44.56943 | 26.08235 | 314 ft | 2 kts | 266° |
| 2026-05-07 18:33 | 44.56942 | 26.08209 | 315 ft | 2 kts | 266° |
| 2026-05-07 18:33 | 44.56941 | 26.08190 | 315 ft | 1 kts | 265° |
| 2026-05-07 18:33 | 44.56940 | 26.08165 | 316 ft | 7 kts | 264° |
| 2026-05-07 18:33 | 44.56933 | 26.08070 | 318 ft | 9 kts | 265° |
| 2026-05-07 18:34 | 44.56909 | 26.07983 | 318 ft | 10 kts | 198° |
| 2026-05-07 18:34 | 44.56831 | 26.07988 | 317 ft | 9 kts | 173° |
| 2026-05-07 18:34 | 44.56765 | 26.07979 | 317 ft | 10 kts | 217° |
| 2026-05-07 18:34 | 44.56736 | 26.07891 | 318 ft | 10 kts | 254° |
| 2026-05-07 18:35 | 44.56715 | 26.07787 | 317 ft | 12 kts | 254° |
| 2026-05-07 18:35 | 44.56696 | 26.07702 | 317 ft | 9 kts | 241° |
| 2026-05-07 18:35 | 44.56633 | 26.07665 | 316 ft | 11 kts | 176° |
| 2026-05-07 18:35 | 44.56608 | 26.07669 | 316 ft | 3 kts | 174° |
| 2026-05-07 18:36 | 44.56604 | 26.07670 | 316 ft | 0 kts | 174° |
| 2026-05-07 18:38 | 44.56598 | 26.07671 | 316 ft | 2 kts | 173° |
| 2026-05-07 18:38 | 44.56569 | 26.07675 | 316 ft | 5 kts | 173° |
| 2026-05-07 18:38 | 44.56519 | 26.07683 | 316 ft | 8 kts | 173° |
| 2026-05-07 18:38 | 44.56473 | 26.07738 | 315 ft | 11 kts | 95° |
| 2026-05-07 18:39 | 44.56474 | 26.07770 | 314 ft | 0 kts | 83° |
| 2026-05-07 18:39 | 44.56474 | 26.07773 | 314 ft | 1 kts | 83° |
| 2026-05-07 18:40 | 44.56477 | 26.07810 | 314 ft | 5 kts | 83° |
| 2026-05-07 18:40 | 44.56490 | 26.07955 | 313 ft | 42 kts | 83° |
| 2026-05-07 18:40 | 44.56551 | 26.08778 | 304 ft | 122 kts | 83° |
| 2026-05-07 18:40 | 44.56661 | 26.10225 | 462 ft | 167 kts | 84° |
| 2026-05-07 18:41 | 44.56787 | 26.11874 | 1090 ft | 176 kts | 86° |
| 2026-05-07 18:41 | 44.56935 | 26.13621 | 1707 ft | 194 kts | 85° |
| 2026-05-07 18:41 | 44.57178 | 26.15733 | 1874 ft | 241 kts | 83° |
| 2026-05-07 18:41 | 44.57473 | 26.18228 | 2057 ft | 283 kts | 83° |
| 2026-05-07 18:42 | 44.57811 | 26.21130 | 2235 ft | 322 kts | 83° |
| 2026-05-07 18:42 | 44.58180 | 26.24419 | 2241 ft | 362 kts | 83° |
| 2026-05-07 18:42 | 44.58571 | 26.27987 | 2804 ft | 364 kts | 83° |
| 2026-05-07 18:42 | 44.58925 | 26.31335 | 3693 ft | 339 kts | 86° |
| 2026-05-07 18:43 | 44.58892 | 26.34494 | 4591 ft | 310 kts | 99° |
| 2026-05-07 18:43 | 44.58475 | 26.37412 | 4684 ft | 310 kts | 108° |